Main page
METAR-TAF:

METAR-TAF

Airports :

Bad Vöslau Airport

Bad Vöslau, Austria

latitude: 47-57-52N, longitude: 016-15-34E, elevation: 233 m

Current weather observation

The report was made 1 hour and 15 minutes ago, at 10:00 UTC
Wind 10 kt from the North/Northwest
Temperature 3°C
Humidity 100%
Pressure

METAR: LOAV 191000Z 33010KT 10KM SCT010ST BKN020SC 03/03

Time: 12:15 (11:15 UTC)

Forecast

The report was made 3 hours and 15 minutes ago, at 08:00 UTC
Forecast valid from 19 at 09 UTC to 19 at 18 UTC
Wind 10 kt from the North/Northwest
Visibility: 8000 m
Scattered clouds at a height of 500 ft
Broken clouds at a height of 1600 ft
Temporary
from 19 at 09 UTC to 19 at 18 UTC
Visibility: 4000 m
Broken clouds at a height of 600 ft
rain, snow

TAF: LOAV 190800Z 1909/1918 33010KT 8000 SCT005 BKN016 TEMPO 1909/1918 4000 RASN BKN006

Weather observations and forecasts of more than 4000 airports (METAR and TAF reports).

The available stations are represented by yellow and red dots on the map.

Hover mouse over dot to see the name of the station.

Then click to see weather observations and forecasts.

To change the map : click on the green buttons with a black cross to zoom in, on the green button with a dash to zoom out, or on the green arrows for adjacent maps.


METAR-TAF: